Time;durP1;ratioP1;P1;durP2;ratioP2;P2;SDS_P1;SDS_P2;PMS_P1;PMS_P2;Temp;Humidity;BMP_temperature;BMP_pressure;BME280_temperature;BME280_humidity;BME280_pressure;Samples;Min_cycle;Max_cycle;Signal;HPM_P1;HPM_P2
2023/02/03 00:00:21;;;;;;;7.93;1.48;;;8.30;99.90;;;;;;5021321;28;20052;-77
2023/02/03 00:02:46;;;;;;;6.90;1.58;;;8.40;99.90;;;;;;5024210;28;20440;-81
2023/02/03 00:05:12;;;;;;;7.25;1.23;;;8.40;99.90;;;;;;5023808;28;20076;-77
2023/02/03 00:07:39;;;;;;;4.88;1.00;;;8.40;99.90;;;;;;5021558;28;20503;-79
2023/02/03 00:10:05;;;;;;;6.20;1.25;;;8.30;99.90;;;;;;5020343;28;20037;-78
2023/02/03 00:12:31;;;;;;;4.78;1.15;;;8.30;99.90;;;;;;5022421;28;20045;-78
2023/02/03 00:14:56;;;;;;;9.93;1.33;;;8.30;99.90;;;;;;5021687;28;20040;-83
2023/02/03 00:17:22;;;;;;;5.93;1.52;;;8.30;99.90;;;;;;5021765;28;20091;-79
2023/02/03 00:19:48;;;;;;;9.15;1.48;;;8.30;99.90;;;;;;5022690;28;20037;-77
2023/02/03 00:22:14;;;;;;;8.88;1.77;;;8.40;99.90;;;;;;5022645;28;20037;-79
2023/02/03 00:24:40;;;;;;;6.25;1.30;;;8.30;99.90;;;;;;5005777;28;20052;-78
2023/02/03 00:27:05;;;;;;;7.50;1.15;;;8.30;99.90;;;;;;5022076;28;20038;-78
2023/02/03 00:29:31;;;;;;;5.03;0.80;;;8.30;99.90;;;;;;5022326;28;20116;-82
2023/02/03 00:31:57;;;;;;;8.73;0.98;;;8.30;99.90;;;;;;5021396;28;20036;-79
2023/02/03 00:34:28;;;;;;;10.13;2.13;;;8.40;99.90;;;;;;5020398;28;20151;-78
2023/02/03 00:36:54;;;;;;;8.82;1.00;;;8.40;99.90;;;;;;5025552;28;20041;-78
2023/02/03 00:39:20;;;;;;;10.40;1.08;;;8.40;99.90;;;;;;5020924;28;20038;-80
2023/02/03 00:41:45;;;;;;;8.75;1.20;;;8.40;99.90;;;;;;5023189;28;20072;-78
2023/02/03 00:44:11;;;;;;;5.40;1.27;;;8.40;99.90;;;;;;5022185;28;20041;-81
2023/02/03 00:46:37;;;;;;;5.93;1.02;;;8.50;99.90;;;;;;5020795;28;20053;-79
2023/02/03 00:49:03;;;;;;;8.07;1.35;;;8.40;99.90;;;;;;5020545;28;20042;-80
2023/02/03 00:51:29;;;;;;;8.48;1.63;;;8.40;99.90;;;;;;5039471;28;20342;-78
2023/02/03 00:53:54;;;;;;;7.53;2.05;;;8.40;99.90;;;;;;5020834;28;20117;-77
2023/02/03 00:56:20;;;;;;;12.65;2.20;;;8.40;99.90;;;;;;5023906;28;20104;-78
2023/02/03 00:58:45;;;;;;;10.30;1.80;;;8.40;99.90;;;;;;5018225;28;20447;-80
2023/02/03 01:01:11;;;;;;;15.18;2.15;;;8.40;99.90;;;;;;5020913;28;20044;-78
2023/02/03 01:03:37;;;;;;;12.43;1.70;;;8.30;99.90;;;;;;5022411;28;20519;-78
2023/02/03 01:06:16;;;;;;;9.18;1.95;;;8.40;99.90;;;;;;5035996;28;20173;-78
2023/02/03 01:08:42;;;;;;;11.35;1.40;;;8.40;99.90;;;;;;5004885;28;20046;-78
2023/02/03 01:11:16;;;;;;;9.75;1.50;;;8.40;99.90;;;;;;5052342;28;20069;-80
2023/02/03 01:13:43;;;;;;;12.10;1.45;;;8.40;99.90;;;;;;5022847;28;20041;-78
2023/02/03 01:16:11;;;;;;;12.77;2.13;;;8.50;99.90;;;;;;5023891;28;20048;-78
2023/02/03 01:18:37;;;;;;;11.90;1.63;;;8.50;99.90;;;;;;5022221;28;20049;-81
2023/02/03 01:21:20;;;;;;;9.88;1.40;;;8.40;99.90;;;;;;5022248;28;20119;-78
2023/02/03 01:23:46;;;;;;;8.75;2.20;;;8.40;99.90;;;;;;5019077;28;20045;-77
2023/02/03 01:26:15;;;;;;;11.02;2.45;;;8.40;99.90;;;;;;5018652;28;20129;-78
2023/02/03 01:28:41;;;;;;;8.55;1.42;;;8.50;99.90;;;;;;5024636;28;20484;-79
2023/02/03 01:31:18;;;;;;;10.23;1.63;;;8.40;99.90;;;;;;5020044;28;20038;-79
2023/02/03 01:33:48;;;;;;;11.30;1.70;;;8.50;99.90;;;;;;5019724;28;20578;-78
2023/02/03 01:36:15;;;;;;;11.70;1.83;;;8.40;99.90;;;;;;5020425;28;20496;-78
2023/02/03 01:38:41;;;;;;;9.75;1.45;;;8.50;99.90;;;;;;5022632;28;20057;-79
2023/02/03 01:41:10;;;;;;;8.13;1.40;;;8.40;99.90;;;;;;5020389;28;20046;-78
2023/02/03 01:43:40;;;;;;;11.40;1.90;;;8.40;99.90;;;;;;5020524;28;20045;-78
2023/02/03 01:46:37;;;;;;;8.32;1.50;;;8.40;99.90;;;;;;5003479;28;20044;-77
2023/02/03 01:49:03;;;;;;;13.88;2.85;;;8.40;99.90;;;;;;5017147;28;20080;-77
2023/02/03 01:51:30;;;;;;;11.15;1.75;;;8.40;99.90;;;;;;5020496;28;20527;-79
2023/02/03 01:53:56;;;;;;;16.15;2.20;;;8.40;99.90;;;;;;5021150;28;20051;-81
2023/02/03 01:56:27;;;;;;;15.27;1.73;;;8.30;99.90;;;;;;5021719;28;20045;-79
2023/02/03 01:58:53;;;;;;;10.70;1.70;;;8.40;99.90;;;;;;5023720;28;20041;-77
2023/02/03 02:01:18;;;;;;;10.00;2.05;;;8.30;99.90;;;;;;5022707;28;20045;-77
2023/02/03 02:03:51;;;;;;;11.13;1.50;;;8.40;99.90;;;;;;5003911;28;20496;-80
2023/02/03 02:06:17;;;;;;;9.43;1.83;;;8.30;99.90;;;;;;5023238;28;20064;-78
2023/02/03 02:08:46;;;;;;;13.38;2.33;;;8.40;99.90;;;;;;5019934;28;20120;-79
2023/02/03 02:11:11;;;;;;;14.15;2.42;;;8.40;99.90;;;;;;5024730;28;20116;-78
2023/02/03 02:13:38;;;;;;;9.30;2.17;;;8.30;99.90;;;;;;5018940;28;20133;-78
2023/02/03 02:16:13;;;;;;;13.18;2.05;;;8.30;99.90;;;;;;5019224;28;20160;-80
2023/02/03 02:18:45;;;;;;;11.07;1.70;;;8.40;99.90;;;;;;5003654;28;20103;-80
2023/02/03 02:21:29;;;;;;;9.82;1.30;;;8.30;99.90;;;;;;5036806;28;20049;-81
2023/02/03 02:24:26;;;;;;;12.93;1.95;;;8.40;99.90;;;;;;5021377;28;20488;-79
2023/02/03 02:27:05;;;;;;;9.45;2.42;;;8.40;99.90;;;;;;5023179;28;20046;-78
2023/02/03 02:29:39;;;;;;;8.85;1.13;;;8.40;99.90;;;;;;5023663;28;20029;-80
2023/02/03 02:32:34;;;;;;;8.88;1.08;;;8.40;99.90;;;;;;5054738;28;20106;-77
2023/02/03 02:35:30;;;;;;;8.55;1.92;;;8.40;99.90;;;;;;5023643;28;20061;-77
2023/02/03 02:38:05;;;;;;;12.35;1.25;;;8.40;99.90;;;;;;5021142;28;20392;-79
2023/02/03 02:40:51;;;;;;;9.85;1.77;;;8.30;99.90;;;;;;5053097;28;20045;-80
2023/02/03 02:43:35;;;;;;;;;;;8.50;99.90;;;;;;5036706;28;20050;-82
2023/02/03 02:46:24;;;;;;;8.90;1.38;;;8.40;99.90;;;;;;5016334;28;20388;-79
2023/02/03 02:49:00;;;;;;;12.95;1.80;;;8.50;99.90;;;;;;5052258;28;20099;-78
2023/02/03 02:51:28;;;;;;;12.23;1.65;;;8.50;99.90;;;;;;5022057;28;20510;-78
2023/02/03 02:54:01;;;;;;;6.75;0.82;;;8.50;99.90;;;;;;5042314;28;20050;-78
2023/02/03 02:56:31;;;;;;;8.80;1.25;;;8.50;99.90;;;;;;5023211;28;20056;-77
2023/02/03 02:59:00;;;;;;;9.63;1.50;;;8.50;99.90;;;;;;5023166;28;20471;-78
2023/02/03 03:01:25;;;;;;;10.52;1.80;;;8.50;99.90;;;;;;5007434;28;20052;-79
2023/02/03 03:03:51;;;;;;;7.97;1.45;;;8.50;99.90;;;;;;5024376;28;20037;-78
2023/02/03 03:06:28;;;;;;;6.50;1.75;;;8.50;99.90;;;;;;5023167;28;20144;-78
2023/02/03 03:08:56;;;;;;;9.13;1.38;;;8.50;99.90;;;;;;5026005;28;20061;-80
2023/02/03 03:11:27;;;;;;;6.28;1.15;;;8.60;99.90;;;;;;5023631;28;20041;-78
2023/02/03 03:13:55;;;;;;;9.52;1.77;;;8.60;99.90;;;;;;5021958;28;20044;-78
2023/02/03 03:16:26;;;;;;;7.60;1.20;;;8.60;99.90;;;;;;5020403;28;20080;-79
2023/02/03 03:19:03;;;;;;;7.90;1.90;;;8.60;99.90;;;;;;5022941;28;20068;-79
2023/02/03 03:21:36;;;;;;;10.50;1.98;;;8.60;99.90;;;;;;5039615;28;20088;-78
2023/02/03 03:24:08;;;;;;;12.90;2.08;;;8.60;99.90;;;;;;5023523;28;20130;-78
2023/02/03 03:26:55;;;;;;;12.98;2.75;;;8.60;99.90;;;;;;5028134;28;20408;-78
2023/02/03 03:29:28;;;;;;;9.82;2.35;;;8.60;99.90;;;;;;5026610;28;20135;-81
2023/02/03 03:31:53;;;;;;;6.60;1.13;;;8.60;99.90;;;;;;5023460;28;20056;-78
2023/02/03 03:34:19;;;;;;;10.60;2.15;;;8.60;99.90;;;;;;5022675;28;20042;-79
2023/02/03 03:36:52;;;;;;;8.10;1.48;;;8.60;99.90;;;;;;5019461;28;20049;-79
2023/02/03 03:39:51;;;;;;;9.38;1.42;;;8.60;99.90;;;;;;5020620;28;20583;-79
2023/02/03 03:42:23;;;;;;;15.20;1.52;;;8.50;99.90;;;;;;5019274;28;20577;-79
2023/02/03 03:45:19;;;;;;;9.38;1.23;;;8.60;99.90;;;;;;5021946;28;20053;-78
2023/02/03 03:47:56;;;;;;;9.40;1.60;;;8.60;99.90;;;;;;5055798;28;20042;-77
2023/02/03 03:50:30;;;;;;;11.18;2.13;;;8.60;99.90;;;;;;5022203;28;20846;-78
2023/02/03 03:52:58;;;;;;;8.20;1.30;;;8.60;99.90;;;;;;5055701;28;20068;-78
2023/02/03 03:55:25;;;;;;;5.93;1.15;;;8.60;99.90;;;;;;5023175;28;20041;-79
2023/02/03 03:58:03;;;;;;;9.32;1.73;;;8.60;99.90;;;;;;5026740;28;20084;-77
2023/02/03 04:00:33;;;;;;;7.72;1.38;;;8.60;99.90;;;;;;5003050;28;20045;-78
2023/02/03 04:03:05;;;;;;;11.35;1.80;;;8.60;99.90;;;;;;5024607;28;20033;-78
2023/02/03 04:05:32;;;;;;;9.13;1.42;;;8.60;99.90;;;;;;5020674;28;20084;-78
2023/02/03 04:07:58;;;;;;;8.82;1.08;;;8.60;99.90;;;;;;5024485;28;20053;-77
2023/02/03 04:10:32;;;;;;;8.23;1.50;;;8.60;99.90;;;;;;5023251;28;20049;-77
2023/02/03 04:12:58;;;;;;;12.55;1.73;;;8.60;99.90;;;;;;5004055;28;20044;-78
2023/02/03 04:15:24;;;;;;;5.93;1.23;;;8.60;99.90;;;;;;5019463;28;20049;-77
2023/02/03 04:17:49;;;;;;;14.32;2.00;;;8.60;99.90;;;;;;5023199;28;20068;-79
2023/02/03 04:20:15;;;;;;;10.50;1.98;;;8.70;99.90;;;;;;5019876;28;20042;-79
2023/02/03 04:22:41;;;;;;;15.07;2.13;;;8.60;99.90;;;;;;5022010;28;20038;-78
2023/02/03 04:25:07;;;;;;;11.70;1.92;;;8.60;99.90;;;;;;5024203;28;21193;-80
2023/02/03 04:27:33;;;;;;;6.28;1.30;;;8.60;99.90;;;;;;5024055;28;20041;-78
2023/02/03 04:29:59;;;;;;;11.80;1.70;;;8.60;99.90;;;;;;5021336;28;20052;-78
2023/02/03 04:32:24;;;;;;;12.85;1.60;;;8.60;99.90;;;;;;5021815;28;20046;-78
2023/02/03 04:34:50;;;;;;;7.10;1.75;;;8.70;99.90;;;;;;5017037;28;20042;-79
2023/02/03 04:37:15;;;;;;;12.60;1.73;;;8.70;99.90;;;;;;5021305;28;20132;-78
2023/02/03 04:39:41;;;;;;;11.05;2.10;;;8.70;99.90;;;;;;5022823;28;20132;-79
2023/02/03 04:42:06;;;;;;;9.40;1.98;;;8.70;99.90;;;;;;5019867;28;20129;-77
2023/02/03 04:44:32;;;;;;;13.93;2.17;;;8.70;99.90;;;;;;5021845;28;20065;-78
2023/02/03 04:46:58;;;;;;;9.63;1.50;;;8.60;99.90;;;;;;5022116;28;20061;-78
2023/02/03 04:49:23;;;;;;;12.75;2.50;;;8.70;99.90;;;;;;5019558;28;20042;-81
2023/02/03 04:51:49;;;;;;;11.30;1.30;;;8.60;99.90;;;;;;5021860;28;20107;-77
2023/02/03 04:54:15;;;;;;;10.27;1.77;;;8.60;99.90;;;;;;5040157;28;20029;-78
2023/02/03 04:56:40;;;;;;;9.90;1.85;;;8.70;99.90;;;;;;5022119;28;20052;-77
2023/02/03 04:59:06;;;;;;;12.85;1.90;;;8.60;99.90;;;;;;5009935;28;20045;-78
2023/02/03 05:01:32;;;;;;;12.65;2.40;;;8.70;99.90;;;;;;5025690;28;20095;-81
2023/02/03 05:03:57;;;;;;;10.82;1.50;;;8.70;99.90;;;;;;5005892;28;20038;-78
2023/02/03 05:06:27;;;;;;;11.02;1.52;;;8.70;99.90;;;;;;5054152;28;20037;-78
2023/02/03 05:08:53;;;;;;;10.95;1.55;;;8.60;99.90;;;;;;5023479;28;20042;-77
2023/02/03 05:11:20;;;;;;;12.15;2.17;;;8.70;99.90;;;;;;5022751;28;20474;-78
2023/02/03 05:13:45;;;;;;;9.40;1.80;;;8.60;99.90;;;;;;5052027;28;20479;-78
2023/02/03 05:16:11;;;;;;;10.25;1.85;;;8.60;99.90;;;;;;5002226;28;20052;-78
2023/02/03 05:18:37;;;;;;;18.30;2.90;;;8.60;99.90;;;;;;5020702;28;20399;-77
2023/02/03 05:21:02;;;;;;;12.30;1.70;;;8.70;99.90;;;;;;5021948;28;20041;-77
2023/02/03 05:23:28;;;;;;;12.05;1.60;;;8.70;99.90;;;;;;5021554;28;20480;-84
2023/02/03 05:25:53;;;;;;;12.80;2.08;;;8.60;99.90;;;;;;5022152;28;20131;-77
2023/02/03 05:28:19;;;;;;;8.93;1.38;;;8.70;99.90;;;;;;5020094;28;20049;-78
2023/02/03 05:30:45;;;;;;;9.52;1.83;;;8.70;99.90;;;;;;5022803;28;20034;-77
2023/02/03 05:33:10;;;;;;;10.13;1.38;;;8.70;99.90;;;;;;5019777;28;20131;-77
2023/02/03 05:35:36;;;;;;;13.45;2.25;;;8.60;99.90;;;;;;5031021;28;20041;-79
2023/02/03 05:38:02;;;;;;;8.85;1.60;;;8.70;99.90;;;;;;5037613;28;21822;-78
2023/02/03 05:43:12;;;;;;;11.68;1.60;;;8.70;99.90;;;;;;5025457;28;20052;-80
2023/02/03 05:45:38;;;;;;;14.68;2.47;;;8.70;99.90;;;;;;5019583;28;20041;-81
2023/02/03 05:48:03;;;;;;;14.73;1.80;;;8.60;99.90;;;;;;5021619;28;20044;-79
2023/02/03 05:50:33;;;;;;;9.77;1.60;;;8.70;99.90;;;;;;5018169;28;20048;-80
2023/02/03 05:53:04;;;;;;;6.72;1.45;;;8.60;99.90;;;;;;5039297;28;20116;-80
2023/02/03 05:55:31;;;;;;;14.60;2.38;;;8.70;99.90;;;;;;5031780;28;20080;-80
2023/02/03 05:57:57;;;;;;;10.35;1.77;;;8.70;99.90;;;;;;5022301;28;20044;-80
2023/02/03 06:00:23;;;;;;;9.45;2.05;;;8.70;99.90;;;;;;5018994;28;20041;-78
2023/02/03 06:02:57;;;;;;;12.40;2.75;;;8.70;99.90;;;;;;5018050;28;20103;-79
2023/02/03 06:05:24;;;;;;;10.70;1.58;;;8.70;99.90;;;;;;5016969;28;20492;-79
2023/02/03 06:07:50;;;;;;;9.80;1.98;;;8.70;99.90;;;;;;5036216;28;20149;-79
2023/02/03 06:10:16;;;;;;;7.32;1.70;;;8.80;99.90;;;;;;5035126;28;20551;-78
2023/02/03 06:12:41;;;;;;;4.72;1.08;;;8.80;99.90;;;;;;5022358;28;20046;-78
2023/02/03 06:15:08;;;;;;;8.98;2.17;;;8.80;99.90;;;;;;5018185;28;20132;-78
2023/02/03 06:17:34;;;;;;;8.48;1.45;;;8.80;99.90;;;;;;5006057;28;20123;-80
2023/02/03 06:20:10;;;;;;;13.77;2.47;;;8.80;99.90;;;;;;5016598;28;20037;-79
2023/02/03 06:22:35;;;;;;;8.68;1.88;;;8.90;99.90;;;;;;5016337;28;20124;-80
2023/02/03 06:25:01;;;;;;;13.50;2.30;;;8.90;99.90;;;;;;5016869;28;20124;-79
2023/02/03 06:27:26;;;;;;;13.60;1.90;;;8.80;99.90;;;;;;5009116;28;20033;-79
2023/02/03 06:29:52;;;;;;;8.00;1.75;;;9.00;99.90;;;;;;5024763;28;20041;-79
2023/02/03 06:32:18;;;;;;;10.50;1.67;;;8.90;99.90;;;;;;5024103;28;20048;-80
2023/02/03 06:34:44;;;;;;;7.75;1.38;;;8.90;99.90;;;;;;5010611;28;20068;-80
2023/02/03 06:37:09;;;;;;;12.00;2.70;;;8.90;99.90;;;;;;5029619;28;20045;-81
2023/02/03 06:39:35;;;;;;;14.25;2.42;;;8.90;99.90;;;;;;5011822;28;20060;-78
2023/02/03 06:42:01;;;;;;;9.07;1.60;;;8.90;99.90;;;;;;5024634;28;20030;-78
2023/02/03 06:44:26;;;;;;;10.80;2.13;;;9.00;99.90;;;;;;5018564;28;20049;-79
2023/02/03 06:46:52;;;;;;;10.40;1.90;;;8.90;99.90;;;;;;5023752;28;20037;-79
2023/02/03 06:49:18;;;;;;;13.20;2.80;;;9.00;99.90;;;;;;5024799;28;20132;-80
2023/02/03 06:51:44;;;;;;;14.75;2.55;;;9.00;99.90;;;;;;5006962;28;20125;-79
2023/02/03 06:54:12;;;;;;;16.50;2.50;;;9.00;99.90;;;;;;5025475;28;20402;-79
2023/02/03 06:56:37;;;;;;;10.30;1.92;;;9.40;99.90;;;;;;5025031;28;20048;-79
2023/02/03 06:59:03;;;;;;;13.02;2.05;;;9.00;99.90;;;;;;5027004;28;20053;-79
2023/02/03 07:01:30;;;;;;;16.42;2.42;;;9.00;99.90;;;;;;5025278;28;20052;-79
2023/02/03 07:03:57;;;;;;;14.45;2.58;;;9.00;99.90;;;;;;5024358;28;20092;-81
2023/02/03 07:06:29;;;;;;;11.40;1.75;;;9.00;99.90;;;;;;5014707;28;20041;-79
2023/02/03 07:08:56;;;;;;;10.98;2.85;;;8.90;99.90;;;;;;5042047;28;20034;-79
2023/02/03 07:11:21;;;;;;;13.60;2.50;;;9.00;99.90;;;;;;5024809;28;20076;-79
2023/02/03 07:13:47;;;;;;;15.65;2.42;;;9.00;99.90;;;;;;5004709;28;20729;-79
2023/02/03 07:16:13;;;;;;;17.15;2.70;;;9.00;99.90;;;;;;5021392;28;20084;-79
2023/02/03 07:18:39;;;;;;;11.88;2.88;;;9.00;99.90;;;;;;5020635;28;20055;-79
2023/02/03 07:21:05;;;;;;;12.13;3.03;;;9.00;99.90;;;;;;5024736;28;20077;-79
2023/02/03 07:23:31;;;;;;;15.10;2.58;;;9.00;99.90;;;;;;5023932;28;20033;-79
2023/02/03 07:26:03;;;;;;;16.65;2.97;;;9.00;99.90;;;;;;5022932;28;20052;-80
2023/02/03 07:28:29;;;;;;;11.18;2.22;;;9.00;99.90;;;;;;5036407;28;20033;-79
2023/02/03 07:30:55;;;;;;;17.35;3.05;;;9.00;99.90;;;;;;5024211;28;20042;-79
2023/02/03 07:33:20;;;;;;;11.95;2.13;;;9.00;99.90;;;;;;5022163;28;20054;-79
2023/02/03 07:35:56;;;;;;;13.68;2.10;;;9.00;99.90;;;;;;5024031;28;20132;-80
2023/02/03 07:38:23;;;;;;;11.85;2.10;;;9.00;99.90;;;;;;5027504;28;20488;-80
2023/02/03 07:40:49;;;;;;;13.25;2.63;;;9.00;99.90;;;;;;5024243;28;20046;-79
2023/02/03 07:43:14;;;;;;;11.57;2.30;;;9.00;99.90;;;;;;5053005;28;20040;-80
2023/02/03 07:45:40;;;;;;;9.45;2.20;;;9.00;99.90;;;;;;5020846;28;20046;-79
2023/02/03 07:48:06;;;;;;;12.13;2.08;;;9.00;99.90;;;;;;5021562;28;20042;-79
2023/02/03 07:50:32;;;;;;;13.30;2.58;;;8.90;99.90;;;;;;5020081;28;20127;-79
2023/02/03 07:52:59;;;;;;;11.85;2.58;;;9.00;99.90;;;;;;5020319;28;20029;-80
2023/02/03 07:55:25;;;;;;;8.10;2.22;;;9.10;99.90;;;;;;5023940;28;20038;-79
2023/02/03 07:57:54;;;;;;;13.93;2.45;;;9.10;99.90;;;;;;5025292;28;20037;-79
2023/02/03 08:00:20;;;;;;;14.93;2.92;;;9.10;99.90;;;;;;5023295;28;20537;-79
2023/02/03 08:02:46;;;;;;;13.30;2.38;;;9.10;99.90;;;;;;5025258;28;20117;-80
2023/02/03 08:05:12;;;;;;;16.42;3.00;;;9.10;99.90;;;;;;5020381;28;20076;-79
2023/02/03 08:07:38;;;;;;;13.68;2.70;;;9.10;99.90;;;;;;5019513;28;20045;-80
2023/02/03 08:10:05;;;;;;;12.65;2.55;;;9.10;99.90;;;;;;5017655;28;20391;-79
2023/02/03 08:12:30;;;;;;;16.67;2.38;;;9.10;99.90;;;;;;5021571;28;20044;-80
2023/02/03 08:14:56;;;;;;;14.70;2.65;;;9.10;99.90;;;;;;5026070;28;20034;-79
2023/02/03 08:17:22;;;;;;;16.05;3.20;;;9.10;99.90;;;;;;5011013;28;20064;-79
2023/02/03 08:19:47;;;;;;;13.15;1.90;;;9.10;99.90;;;;;;5020245;28;20088;-79
2023/02/03 08:22:15;;;;;;;19.00;3.47;;;9.10;99.90;;;;;;5021598;28;20052;-80
2023/02/03 08:24:45;;;;;;;16.50;2.40;;;9.10;99.90;;;;;;5019089;28;20049;-78
2023/02/03 08:27:16;;;;;;;13.50;2.80;;;9.10;99.90;;;;;;5020313;28;20049;-79
2023/02/03 08:29:43;;;;;;;17.50;3.42;;;9.10;99.90;;;;;;5020560;28;20053;-79
2023/02/03 08:32:10;;;;;;;17.13;2.80;;;9.10;99.90;;;;;;5020492;28;20038;-79
2023/02/03 08:34:36;;;;;;;15.50;3.97;;;9.10;99.90;;;;;;5018411;28;20504;-79
2023/02/03 08:37:02;;;;;;;18.55;3.78;;;9.00;99.90;;;;;;5022175;28;20076;-80
2023/02/03 08:39:27;;;;;;;15.45;3.30;;;9.10;99.90;;;;;;5020784;28;20484;-80
2023/02/03 08:41:53;;;;;;;13.60;3.00;;;9.10;99.90;;;;;;5023378;28;20096;-79
2023/02/03 08:44:18;;;;;;;18.70;2.75;;;9.10;99.90;;;;;;5023020;28;20107;-79
2023/02/03 08:46:48;;;;;;;17.58;3.15;;;9.10;99.90;;;;;;5019275;28;20065;-80
2023/02/03 08:49:14;;;;;;;10.70;2.38;;;9.10;99.90;;;;;;5010898;28;20041;-79
2023/02/03 08:51:39;;;;;;;13.65;2.47;;;9.20;99.90;;;;;;5020972;28;20045;-79
2023/02/03 08:54:05;;;;;;;16.95;3.80;;;9.20;99.90;;;;;;5016954;28;20041;-79
2023/02/03 08:56:32;;;;;;;17.17;2.50;;;9.30;99.90;;;;;;5001369;28;20076;-79
2023/02/03 08:58:58;;;;;;;17.00;2.90;;;9.30;99.90;;;;;;5024003;28;20504;-81
2023/02/03 09:01:24;;;;;;;12.18;2.30;;;9.30;99.90;;;;;;5021097;28;20056;-79
2023/02/03 09:03:50;;;;;;;12.68;2.13;;;9.40;99.90;;;;;;5018549;28;20045;-79
2023/02/03 09:06:15;;;;;;;14.52;2.70;;;9.30;99.90;;;;;;5020991;28;20073;-79
2023/02/03 09:08:45;;;;;;;17.27;3.58;;;9.30;99.90;;;;;;5016284;28;20050;-79
2023/02/03 09:11:13;;;;;;;20.08;3.63;;;9.40;99.90;;;;;;5021502;28;20092;-79
2023/02/03 09:13:42;;;;;;;14.65;2.38;;;9.40;99.90;;;;;;5020933;28;20547;-79
2023/02/03 09:16:08;;;;;;;13.57;2.60;;;9.40;99.90;;;;;;5021826;28;20048;-79
2023/02/03 09:18:33;;;;;;;19.95;2.92;;;9.40;99.90;;;;;;5020540;28;20500;-80
2023/02/03 09:21:03;;;;;;;13.85;3.05;;;9.40;99.90;;;;;;5003246;28;20052;-79
2023/02/03 09:23:29;;;;;;;18.52;3.70;;;9.50;99.90;;;;;;5019381;28;20041;-80
2023/02/03 09:25:55;;;;;;;12.80;3.65;;;9.40;99.90;;;;;;5022113;28;20045;-80
2023/02/03 09:28:21;;;;;;;18.33;3.85;;;9.50;99.90;;;;;;5019192;28;20026;-79
2023/02/03 09:30:46;;;;;;;15.15;3.97;;;9.50;99.90;;;;;;5018083;28;20046;-79
2023/02/03 09:33:12;;;;;;;17.73;4.00;;;9.50;99.90;;;;;;5020385;28;20052;-79
2023/02/03 09:35:39;;;;;;;18.05;3.75;;;9.50;99.90;;;;;;5018512;28;20053;-79
2023/02/03 09:38:04;;;;;;;21.80;3.65;;;9.50;99.90;;;;;;5002185;28;20037;-79
2023/02/03 09:40:35;;;;;;;22.45;3.80;;;9.50;99.90;;;;;;5021442;28;20542;-79
2023/02/03 09:43:37;;;;;;;23.50;3.30;;;9.60;99.90;;;;;;5018776;28;20037;-79
2023/02/03 09:46:22;;;;;;;30.75;4.68;;;9.50;99.90;;;;;;5024372;28;20048;-79
2023/02/03 09:49:17;;;;;;;22.75;4.57;;;9.50;99.90;;;;;;5020256;28;20049;-79
2023/02/03 09:51:53;;;;;;;17.20;4.03;;;9.50;99.90;;;;;;5029346;28;20049;-79
2023/02/03 09:54:26;;;;;;;20.52;4.38;;;9.50;99.90;;;;;;5020941;28;20630;-79
2023/02/03 09:56:54;;;;;;;21.77;3.35;;;9.60;99.90;;;;;;5017616;28;20550;-79
2023/02/03 09:59:21;;;;;;;18.95;4.22;;;9.60;99.90;;;;;;5017919;28;20045;-79
2023/02/03 10:01:58;;;;;;;30.50;5.22;;;9.60;99.90;;;;;;5021562;28;20081;-79
2023/02/03 10:04:40;;;;;;;20.25;4.15;;;9.70;99.90;;;;;;5023843;28;20049;-78
2023/02/03 10:07:24;;;;;;;23.85;4.05;;;9.60;99.90;;;;;;5026057;28;20132;-79
2023/02/03 10:09:49;;;;;;;26.15;4.78;;;9.70;99.90;;;;;;5025242;28;20516;-78
2023/02/03 10:12:24;;;;;;;25.73;5.35;;;9.70;99.90;;;;;;5023599;28;20040;-79
2023/02/03 10:14:59;;;;;;;24.80;4.45;;;9.70;99.90;;;;;;5024339;28;20049;-79
2023/02/03 10:17:51;;;;;;;26.27;4.82;;;9.80;99.90;;;;;;5023581;28;21157;-79
2023/02/03 10:20:59;;;;;;;20.52;4.32;;;9.80;99.90;;;;;;5021289;28;20042;-80
2023/02/03 10:23:37;;;;;;;;;;;9.80;99.90;;;;;;4979508;28;20043;-79
2023/02/03 10:26:08;;;;;;;28.75;4.72;;;9.80;99.90;;;;;;4995269;28;20367;-79
2023/02/03 10:28:42;;;;;;;24.40;4.55;;;9.80;99.90;;;;;;5003536;28;20042;-80
2023/02/03 10:31:20;;;;;;;22.67;4.77;;;9.80;99.90;;;;;;5023275;28;20042;-79
2023/02/03 10:33:47;;;;;;;29.75;5.60;;;9.80;99.90;;;;;;5023879;28;20292;-79
2023/02/03 10:36:20;;;;;;;25.70;5.60;;;9.80;99.90;;;;;;5022738;28;20076;-79
2023/02/03 10:39:16;;;;;;;29.90;5.47;;;9.90;99.90;;;;;;5018608;28;20049;-79
2023/02/03 10:41:42;;;;;;;19.83;3.95;;;9.80;99.90;;;;;;5022274;28;20484;-79
2023/02/03 10:44:11;;;;;;;21.45;4.95;;;9.80;99.90;;;;;;5024927;28;20037;-79
2023/02/03 10:46:40;;;;;;;29.50;5.05;;;9.80;99.90;;;;;;5026934;28;20080;-79
2023/02/03 10:49:08;;;;;;;22.33;4.88;;;9.80;99.90;;;;;;5024578;28;20053;-80
2023/02/03 10:51:42;;;;;;;27.02;5.25;;;9.80;99.90;;;;;;5023617;28;20045;-79
2023/02/03 10:54:25;;;;;;;29.20;4.95;;;9.80;99.90;;;;;;5024074;28;20565;-79
2023/02/03 10:56:51;;;;;;;23.50;5.32;;;9.80;99.90;;;;;;5021394;28;20096;-79
2023/02/03 10:59:49;;;;;;;29.75;5.72;;;9.90;99.90;;;;;;5023522;28;20037;-79
2023/02/03 11:02:28;;;;;;;29.52;5.80;;;9.90;99.90;;;;;;4980213;28;20054;-79
2023/02/03 11:05:15;;;;;;;28.10;5.28;;;9.90;99.90;;;;;;5027225;28;20045;-81
2023/02/03 11:07:41;;;;;;;24.65;4.72;;;9.90;99.90;;;;;;5028320;28;20076;-79
2023/02/03 11:10:35;;;;;;;29.95;5.97;;;9.90;99.90;;;;;;5021226;28;20496;-79
2023/02/03 11:13:11;;;;;;;24.75;5.35;;;9.90;99.90;;;;;;5038643;28;20061;-79
2023/02/03 11:15:37;;;;;;;26.65;6.53;;;10.00;99.90;;;;;;5007012;28;20045;-79
2023/02/03 11:18:03;;;;;;;28.20;5.40;;;10.00;99.90;;;;;;5018957;28;20034;-79
2023/02/03 11:20:29;;;;;;;32.97;5.25;;;10.10;99.90;;;;;;5023131;28;20146;-79
2023/02/03 11:22:55;;;;;;;29.20;5.68;;;10.20;99.90;;;;;;5022225;28;20045;-79
2023/02/03 11:25:31;;;;;;;29.60;5.75;;;10.10;99.90;;;;;;5009300;28;20048;-79
2023/02/03 11:28:04;;;;;;;25.83;5.50;;;10.10;99.90;;;;;;5021624;28;20108;-79
2023/02/03 11:30:29;;;;;;;27.75;5.53;;;10.10;99.90;;;;;;5054955;28;20120;-80
2023/02/03 11:32:59;;;;;;;24.65;5.85;;;10.10;99.90;;;;;;5022397;28;20128;-79
2023/02/03 11:35:30;;;;;;;30.42;6.32;;;10.10;99.90;;;;;;5053456;28;20065;-79
2023/02/03 11:37:58;;;;;;;27.70;5.90;;;10.10;99.90;;;;;;5025337;28;20408;-79
2023/02/03 11:40:32;;;;;;;31.50;6.38;;;10.00;99.90;;;;;;5022605;28;20539;-79
2023/02/03 11:43:16;;;;;;;37.10;6.05;;;9.90;99.90;;;;;;5026729;28;20052;-80
2023/02/03 11:45:46;;;;;;;31.95;6.03;;;9.90;99.90;;;;;;5027551;28;20077;-80
2023/02/03 11:48:28;;;;;;;33.80;6.43;;;10.00;99.90;;;;;;5056761;28;20043;-80
2023/02/03 11:51:19;;;;;;;29.90;6.43;;;10.00;99.90;;;;;;5024608;28;20069;-81
2023/02/03 11:54:15;;;;;;;29.38;6.35;;;10.00;99.90;;;;;;5010394;28;20056;-81
2023/02/03 11:56:44;;;;;;;23.35;5.13;;;10.00;99.90;;;;;;5011657;28;20127;-81
2023/02/03 11:59:39;;;;;;;27.15;5.85;;;10.00;99.90;;;;;;5021101;28;20041;-81
2023/02/03 12:02:30;;;;;;;37.60;7.85;;;10.00;99.90;;;;;;5025947;28;20049;-81
2023/02/03 12:05:28;;;;;;;24.38;6.32;;;9.90;99.90;;;;;;5029397;28;20049;-80
2023/02/03 12:08:17;;;;;;;27.83;6.05;;;9.80;99.90;;;;;;5009454;28;20500;-80
2023/02/03 12:11:10;;;;;;;24.60;6.18;;;9.80;99.90;;;;;;5021393;28;20058;-80
2023/02/03 12:13:58;;;;;;;32.38;7.10;;;9.80;99.90;;;;;;5025254;28;20140;-81
2023/02/03 12:16:51;;;;;;;33.60;6.35;;;9.80;99.90;;;;;;5021698;28;20115;-81
2023/02/03 12:19:32;;;;;;;31.02;6.97;;;9.80;99.90;;;;;;5012444;28;20049;-80
2023/02/03 12:22:20;;;;;;;34.17;6.03;;;9.80;99.90;;;;;;5023359;28;20053;-80
2023/02/03 12:25:03;;;;;;;29.08;6.05;;;9.70;99.90;;;;;;5023337;28;20165;-81
2023/02/03 12:27:49;;;;;;;30.27;6.13;;;9.70;99.90;;;;;;5024574;28;20168;-80
2023/02/03 12:30:24;;;;;;;30.20;6.70;;;9.80;99.90;;;;;;5020719;28;20053;-81
2023/02/03 12:33:17;;;;;;;37.45;6.10;;;9.70;99.90;;;;;;5026533;28;20558;-81
2023/02/03 12:35:58;;;;;;;27.73;6.63;;;9.70;99.90;;;;;;5026690;28;20071;-81
2023/02/03 12:38:47;;;;;;;34.25;7.43;;;9.70;99.90;;;;;;5012347;28;20129;-81
2023/02/03 12:41:19;;;;;;;33.30;5.90;;;9.60;99.90;;;;;;5022867;28;20393;-81
2023/02/03 12:43:49;;;;;;;28.55;5.68;;;9.60;99.90;;;;;;5020792;28;20374;-80
2023/02/03 12:46:23;;;;;;;40.92;8.02;;;9.60;99.90;;;;;;5024448;28;20128;-79
2023/02/03 12:48:54;;;;;;;32.50;7.30;;;9.50;99.90;;;;;;5038818;28;20037;-79
2023/02/03 12:51:30;;;;;;;41.20;7.18;;;9.50;99.90;;;;;;5021695;28;20050;-78
2023/02/03 12:54:12;;;;;;;35.50;7.05;;;9.50;99.90;;;;;;5019694;28;20041;-79
2023/02/03 12:56:42;;;;;;;42.78;7.25;;;9.50;99.90;;;;;;5017041;28;20057;-78
2023/02/03 12:59:20;;;;;;;35.30;6.88;;;9.40;99.90;;;;;;5023310;28;20045;-79
2023/02/03 13:01:53;;;;;;;37.33;7.20;;;9.50;99.90;;;;;;5017992;28;20069;-79
2023/02/03 13:04:37;;;;;;;39.38;7.90;;;9.40;99.90;;;;;;5020583;28;20055;-79
2023/02/03 13:07:11;;;;;;;40.20;6.95;;;9.40;99.90;;;;;;5022713;28;20403;-79
2023/02/03 13:10:04;;;;;;;35.40;7.28;;;9.30;99.90;;;;;;5019564;28;20038;-79
2023/02/03 13:12:36;;;;;;;32.45;6.53;;;9.30;99.90;;;;;;5003342;28;20045;-79